DLH241 EDDL-EDDF
Flight info
| Callsign | DLH241 |
|---|---|
| Flight time | 0h 29m |
| Altitude | 23000 |
| Route | COL4H COL T911 ROLIS ROLIS5A |
| Aircraft | A20N/M-SDE2E3FGHIRWXY/LB1 |
Departure
| Time | 2026-05-04 19:02 |
|---|---|
| Airport | Düsseldorf Airport (EDDL) |
Arrival
| Time | 2026-05-04 19:31 |
|---|---|
| Airport | Frankfurt Main Airport (EDDF) |
| Time | Latitude | Longitude | Altitude | Speed | Heading |
|---|---|---|---|---|---|
| 2026-05-04 18:03 | 51.28029 | 6.76534 | 128 ft | 0 kts | 89° |
| 2026-05-04 18:50 | 51.28029 | 6.76532 | 128 ft | 1 kts | 85° |
| 2026-05-04 18:50 | 51.28024 | 6.76514 | 125 ft | 1 kts | 34° |
| 2026-05-04 18:51 | 51.28022 | 6.76511 | 125 ft | 1 kts | 22° |
| 2026-05-04 18:51 | 51.28021 | 6.76510 | 126 ft | 0 kts | 18° |
| 2026-05-04 18:51 | 51.28028 | 6.76504 | 128 ft | 7 kts | 333° |
| 2026-05-04 18:51 | 51.28035 | 6.76493 | 124 ft | 0 kts | 310° |
| 2026-05-04 18:53 | 51.28044 | 6.76476 | 126 ft | 7 kts | 310° |
| 2026-05-04 18:53 | 51.28107 | 6.76421 | 124 ft | 14 kts | 354° |
| 2026-05-04 18:53 | 51.28214 | 6.76438 | 126 ft | 17 kts | 11° |
| 2026-05-04 18:54 | 51.28304 | 6.76464 | 124 ft | 12 kts | 356° |
| 2026-05-04 18:54 | 51.28376 | 6.76534 | 121 ft | 14 kts | 53° |
| 2026-05-04 18:54 | 51.28434 | 6.76653 | 123 ft | 15 kts | 52° |
| 2026-05-04 18:54 | 51.28499 | 6.76795 | 122 ft | 17 kts | 54° |
| 2026-05-04 18:55 | 51.28568 | 6.76952 | 126 ft | 18 kts | 56° |
| 2026-05-04 18:55 | 51.28703 | 6.77219 | 127 ft | 20 kts | 51° |
| 2026-05-04 18:55 | 51.28792 | 6.77407 | 124 ft | 22 kts | 51° |
| 2026-05-04 18:56 | 51.28888 | 6.77613 | 127 ft | 24 kts | 56° |
| 2026-05-04 18:56 | 51.28914 | 6.77670 | 127 ft | 13 kts | 50° |
| 2026-05-04 18:56 | 51.29001 | 6.77852 | 128 ft | 23 kts | 53° |
| 2026-05-04 18:56 | 51.29103 | 6.78068 | 131 ft | 24 kts | 52° |
| 2026-05-04 18:57 | 51.29210 | 6.78222 | 136 ft | 15 kts | 6° |
| 2026-05-04 18:57 | 51.29216 | 6.78219 | 136 ft | 0 kts | 345° |
| 2026-05-04 18:59 | 51.29231 | 6.78210 | 136 ft | 9 kts | 339° |
| 2026-05-04 18:59 | 51.29255 | 6.78190 | 136 ft | 0 kts | 328° |
| 2026-05-04 18:59 | 51.29256 | 6.78189 | 137 ft | 1 kts | 328° |
| 2026-05-04 19:00 | 51.29257 | 6.78188 | 137 ft | 0 kts | 328° |
| 2026-05-04 19:01 | 51.29259 | 6.78186 | 137 ft | 1 kts | 324° |
| 2026-05-04 19:01 | 51.29312 | 6.78065 | 139 ft | 25 kts | 265° |
| 2026-05-04 19:01 | 51.29276 | 6.77968 | 136 ft | 11 kts | 231° |
| 2026-05-04 19:01 | 51.29073 | 6.77566 | 128 ft | 82 kts | 231° |
| 2026-05-04 19:02 | 51.28617 | 6.76598 | 126 ft | 136 kts | 232° |
| 2026-05-04 19:02 | 51.27961 | 6.75193 | 289 ft | 164 kts | 233° |
| 2026-05-04 19:02 | 51.27313 | 6.73736 | 970 ft | 160 kts | 232° |
| 2026-05-04 19:02 | 51.26656 | 6.72320 | 1644 ft | 162 kts | 231° |
| 2026-05-04 19:03 | 51.25965 | 6.70852 | 2322 ft | 168 kts | 231° |
| 2026-05-04 19:03 | 51.25235 | 6.69300 | 3003 ft | 169 kts | 232° |
| 2026-05-04 19:03 | 51.24549 | 6.67836 | 3627 ft | 170 kts | 232° |
| 2026-05-04 19:03 | 51.23840 | 6.66318 | 4301 ft | 170 kts | 232° |
| 2026-05-04 19:04 | 51.23117 | 6.64772 | 4624 ft | 174 kts | 231° |
| 2026-05-04 19:04 | 51.22186 | 6.63628 | 4739 ft | 171 kts | 199° |
| 2026-05-04 19:04 | 51.20990 | 6.63510 | 4877 ft | 182 kts | 174° |
| 2026-05-04 19:04 | 51.19608 | 6.63771 | 5008 ft | 216 kts | 175° |
| 2026-05-04 19:05 | 51.18038 | 6.64040 | 5008 ft | 236 kts | 175° |
| 2026-05-04 19:05 | 51.16391 | 6.64322 | 5000 ft | 238 kts | 172° |
| 2026-05-04 19:05 | 51.14860 | 6.65233 | 5036 ft | 243 kts | 148° |
| 2026-05-04 19:05 | 51.13640 | 6.67217 | 5200 ft | 266 kts | 122° |
| 2026-05-04 19:06 | 51.13112 | 6.70096 | 6063 ft | 277 kts | 94° |
| 2026-05-04 19:06 | 51.13197 | 6.73175 | 7103 ft | 280 kts | 89° |
| 2026-05-04 19:06 | 51.13321 | 6.76293 | 8049 ft | 284 kts | 89° |
| 2026-05-04 19:06 | 51.13445 | 6.79445 | 9031 ft | 287 kts | 89° |
| 2026-05-04 19:07 | 51.13569 | 6.82649 | 9977 ft | 292 kts | 89° |
| 2026-05-04 19:07 | 51.13692 | 6.85959 | 10558 ft | 310 kts | 89° |
| 2026-05-04 19:07 | 51.13820 | 6.89513 | 10906 ft | 333 kts | 89° |
| 2026-05-04 19:07 | 51.13956 | 6.93293 | 11434 ft | 347 kts | 89° |
| 2026-05-04 19:08 | 51.14097 | 6.97140 | 12287 ft | 350 kts | 89° |
| 2026-05-04 19:08 | 51.14239 | 7.01041 | 13120 ft | 355 kts | 89° |
| 2026-05-04 19:08 | 51.14381 | 7.04993 | 13931 ft | 359 kts | 89° |
| 2026-05-04 19:08 | 51.14388 | 7.08974 | 14644 ft | 361 kts | 96° |
| 2026-05-04 19:09 | 51.14037 | 7.12953 | 15359 ft | 364 kts | 104° |
| 2026-05-04 19:09 | 51.13426 | 7.16827 | 16071 ft | 367 kts | 107° |
| 2026-05-04 19:09 | 51.12790 | 7.20842 | 16778 ft | 372 kts | 106° |
| 2026-05-04 19:09 | 51.11922 | 7.24720 | 17472 ft | 372 kts | 121° |
| 2026-05-04 19:10 | 51.10381 | 7.27993 | 18165 ft | 371 kts | 139° |
| 2026-05-04 19:10 | 51.08306 | 7.30411 | 18757 ft | 372 kts | 150° |
| 2026-05-04 19:10 | 51.06084 | 7.32563 | 19328 ft | 376 kts | 151° |
| 2026-05-04 19:10 | 51.03841 | 7.34733 | 19924 ft | 379 kts | 151° |
| 2026-05-04 19:11 | 51.01576 | 7.36928 | 20503 ft | 383 kts | 151° |
| 2026-05-04 19:11 | 50.99289 | 7.39149 | 21089 ft | 387 kts | 151° |
| 2026-05-04 19:11 | 50.96988 | 7.41384 | 21659 ft | 390 kts | 151° |
| 2026-05-04 19:11 | 50.94654 | 7.43651 | 22212 ft | 395 kts | 151° |
| 2026-05-04 19:12 | 50.92300 | 7.45935 | 22659 ft | 399 kts | 151° |
| 2026-05-04 19:12 | 50.87559 | 7.50528 | 22936 ft | 400 kts | 151° |
| 2026-05-04 19:12 | 50.85211 | 7.52798 | 22987 ft | 401 kts | 151° |
| 2026-05-04 19:13 | 50.82837 | 7.55091 | 22984 ft | 400 kts | 151° |
| 2026-05-04 19:13 | 50.80460 | 7.57383 | 22985 ft | 400 kts | 151° |
| 2026-05-04 19:13 | 50.78005 | 7.59434 | 22987 ft | 397 kts | 159° |
| 2026-05-04 19:13 | 50.75464 | 7.61177 | 22988 ft | 398 kts | 159° |
| 2026-05-04 19:14 | 50.72928 | 7.62923 | 22937 ft | 397 kts | 159° |
| 2026-05-04 19:14 | 50.70396 | 7.64648 | 22523 ft | 397 kts | 159° |
| 2026-05-04 19:14 | 50.67844 | 7.66366 | 21745 ft | 400 kts | 159° |
| 2026-05-04 19:14 | 50.65261 | 7.68092 | 20769 ft | 406 kts | 159° |
| 2026-05-04 19:15 | 50.62659 | 7.69825 | 20091 ft | 404 kts | 159° |
| 2026-05-04 19:15 | 50.60080 | 7.71544 | 19888 ft | 389 kts | 160° |
| 2026-05-04 19:15 | 50.57653 | 7.73160 | 19467 ft | 381 kts | 160° |
| 2026-05-04 19:15 | 50.55236 | 7.74765 | 19057 ft | 374 kts | 160° |
| 2026-05-04 19:16 | 50.52858 | 7.76341 | 18425 ft | 368 kts | 160° |
| 2026-05-04 19:16 | 50.50505 | 7.77897 | 17555 ft | 365 kts | 160° |
| 2026-05-04 19:16 | 50.48183 | 7.79431 | 16557 ft | 363 kts | 160° |
| 2026-05-04 19:16 | 50.45818 | 7.80989 | 15245 ft | 372 kts | 159° |
| 2026-05-04 19:17 | 50.43499 | 7.82823 | 14309 ft | 373 kts | 152° |
| 2026-05-04 19:17 | 50.41364 | 7.85144 | 13713 ft | 372 kts | 144° |
| 2026-05-04 19:17 | 50.39355 | 7.87665 | 13091 ft | 368 kts | 144° |
| 2026-05-04 19:17 | 50.37386 | 7.90119 | 12476 ft | 364 kts | 144° |
| 2026-05-04 19:18 | 50.35414 | 7.92566 | 11889 ft | 360 kts | 144° |
| 2026-05-04 19:18 | 50.33482 | 7.94962 | 11673 ft | 346 kts | 144° |
| 2026-05-04 19:18 | 50.31632 | 7.97254 | 11523 ft | 332 kts | 145° |
| 2026-05-04 19:18 | 50.29859 | 7.99448 | 11387 ft | 317 kts | 145° |
| 2026-05-04 19:19 | 50.28161 | 8.01544 | 11260 ft | 304 kts | 145° |
| 2026-05-04 19:19 | 50.26570 | 8.03616 | 11072 ft | 295 kts | 139° |
| 2026-05-04 19:19 | 50.25419 | 8.06267 | 10776 ft | 304 kts | 114° |
| 2026-05-04 19:19 | 50.24991 | 8.09750 | 10548 ft | 345 kts | 96° |
| 2026-05-04 19:20 | 50.24955 | 8.13540 | 10390 ft | 346 kts | 92° |
| 2026-05-04 19:20 | 50.25013 | 8.17250 | 10310 ft | 336 kts | 91° |
| 2026-05-04 19:20 | 50.25054 | 8.20841 | 10193 ft | 324 kts | 92° |
| 2026-05-04 19:20 | 50.25058 | 8.24282 | 10076 ft | 311 kts | 94° |
| 2026-05-04 19:21 | 50.25036 | 8.27587 | 9970 ft | 298 kts | 94° |
| 2026-05-04 19:21 | 50.24996 | 8.30816 | 9970 ft | 299 kts | 95° |
| 2026-05-04 19:21 | 50.24948 | 8.34068 | 9932 ft | 298 kts | 95° |
| 2026-05-04 19:21 | 50.24899 | 8.37293 | 9683 ft | 296 kts | 95° |
| 2026-05-04 19:22 | 50.24849 | 8.40494 | 9295 ft | 295 kts | 95° |
| 2026-05-04 19:22 | 50.24799 | 8.43685 | 8892 ft | 293 kts | 94° |
| 2026-05-04 19:22 | 50.24750 | 8.46812 | 8519 ft | 290 kts | 94° |
| 2026-05-04 19:22 | 50.24701 | 8.49945 | 8125 ft | 288 kts | 95° |
| 2026-05-04 19:23 | 50.24650 | 8.53100 | 7730 ft | 286 kts | 94° |
| 2026-05-04 19:23 | 50.24600 | 8.56160 | 7375 ft | 284 kts | 94° |
| 2026-05-04 19:23 | 50.24549 | 8.59274 | 7007 ft | 282 kts | 94° |
| 2026-05-04 19:23 | 50.24498 | 8.62320 | 6645 ft | 280 kts | 94° |
| 2026-05-04 19:24 | 50.24447 | 8.65308 | 6300 ft | 277 kts | 94° |
| 2026-05-04 19:24 | 50.24394 | 8.68317 | 5928 ft | 276 kts | 94° |
| 2026-05-04 19:24 | 50.24341 | 8.71296 | 5550 ft | 274 kts | 94° |
| 2026-05-04 19:24 | 50.24286 | 8.74259 | 5201 ft | 271 kts | 93° |
| 2026-05-04 19:25 | 50.24232 | 8.77187 | 5068 ft | 272 kts | 93° |
| 2026-05-04 19:25 | 50.24178 | 8.80144 | 5004 ft | 271 kts | 93° |
| 2026-05-04 19:25 | 50.24124 | 8.83082 | 5000 ft | 271 kts | 93° |
| 2026-05-04 19:25 | 50.24066 | 8.86019 | 5000 ft | 271 kts | 95° |
| 2026-05-04 19:26 | 50.23574 | 8.88821 | 5005 ft | 269 kts | 121° |
| 2026-05-04 19:26 | 50.22316 | 8.90924 | 5003 ft | 267 kts | 149° |
| 2026-05-04 19:26 | 50.20582 | 8.91851 | 5004 ft | 266 kts | 176° |
| 2026-05-04 19:26 | 50.18732 | 8.91772 | 4999 ft | 266 kts | 184° |
| 2026-05-04 19:27 | 50.16886 | 8.91585 | 4999 ft | 266 kts | 188° |
| 2026-05-04 19:27 | 50.15173 | 8.90575 | 5002 ft | 266 kts | 216° |
| 2026-05-04 19:27 | 50.13803 | 8.88648 | 4999 ft | 267 kts | 224° |
| 2026-05-04 19:27 | 50.12504 | 8.86612 | 4978 ft | 260 kts | 232° |
| 2026-05-04 19:28 | 50.11746 | 8.84110 | 4761 ft | 255 kts | 251° |
| 2026-05-04 19:28 | 50.11221 | 8.81474 | 4373 ft | 255 kts | 252° |
| 2026-05-04 19:28 | 50.10661 | 8.78860 | 4002 ft | 255 kts | 250° |
| 2026-05-04 19:28 | 50.10049 | 8.76267 | 3639 ft | 254 kts | 249° |
| 2026-05-04 19:29 | 50.09433 | 8.73674 | 3276 ft | 254 kts | 250° |
| 2026-05-04 19:29 | 50.08819 | 8.71100 | 2914 ft | 254 kts | 250° |
| 2026-05-04 19:29 | 50.08210 | 8.68551 | 2539 ft | 248 kts | 250° |
| 2026-05-04 19:29 | 50.07616 | 8.66064 | 2202 ft | 241 kts | 250° |
| 2026-05-04 19:30 | 50.07059 | 8.63735 | 1882 ft | 223 kts | 251° |
| 2026-05-04 19:30 | 50.06534 | 8.61538 | 1562 ft | 213 kts | 251° |
| 2026-05-04 19:30 | 50.06020 | 8.59388 | 1277 ft | 211 kts | 251° |
| 2026-05-04 19:30 | 50.05525 | 8.57315 | 960 ft | 200 kts | 251° |
| 2026-05-04 19:31 | 50.05043 | 8.55299 | 678 ft | 201 kts | 250° |
| 2026-05-04 19:31 | 50.04575 | 8.53340 | 399 ft | 184 kts | 250° |
| 2026-05-04 19:31 | 50.04194 | 8.51750 | 332 ft | 99 kts | 249° |
| 2026-05-04 19:31 | 50.04043 | 8.51160 | 326 ft | 29 kts | 239° |
| 2026-05-04 19:32 | 50.03915 | 8.50931 | 325 ft | 34 kts | 221° |
| 2026-05-04 19:32 | 50.03854 | 8.50861 | 326 ft | 2 kts | 210° |
| 2026-05-04 19:32 | 50.03789 | 8.50881 | 333 ft | 17 kts | 129° |
| 2026-05-04 19:32 | 50.03756 | 8.50960 | 333 ft | 16 kts | 126° |
| 2026-05-04 19:33 | 50.03707 | 8.51106 | 338 ft | 16 kts | 117° |
| 2026-05-04 19:33 | 50.03658 | 8.51276 | 355 ft | 19 kts | 114° |
| 2026-05-04 19:33 | 50.03628 | 8.51372 | 353 ft | 0 kts | 117° |
| 2026-05-04 19:34 | 50.03628 | 8.51373 | 353 ft | 0 kts | 117° |
| 2026-05-04 19:34 | 50.03624 | 8.51385 | 351 ft | 2 kts | 117° |
| 2026-05-04 19:35 | 50.03616 | 8.51409 | 358 ft | 3 kts | 117° |
| 2026-05-04 19:35 | 50.03593 | 8.51477 | 359 ft | 16 kts | 117° |
| 2026-05-04 19:35 | 50.03524 | 8.51692 | 358 ft | 23 kts | 114° |
| 2026-05-04 19:35 | 50.03521 | 8.51934 | 354 ft | 24 kts | 83° |
| 2026-05-04 19:36 | 50.03535 | 8.52098 | 350 ft | 15 kts | 83° |
| 2026-05-04 19:36 | 50.03542 | 8.52200 | 344 ft | 0 kts | 83° |
| 2026-05-04 19:38 | 50.03548 | 8.52272 | 336 ft | 11 kts | 83° |
| 2026-05-04 19:38 | 50.03558 | 8.52359 | 340 ft | 0 kts | 78° |
| 2026-05-04 19:39 | 50.03552 | 8.52391 | 339 ft | 3 kts | 119° |
| 2026-05-04 19:39 | 50.03529 | 8.52428 | 338 ft | 17 kts | 135° |
| 2026-05-04 19:39 | 50.03489 | 8.52555 | 335 ft | 22 kts | 95° |
| 2026-05-04 19:39 | 50.03525 | 8.52795 | 333 ft | 13 kts | 75° |
| 2026-05-04 19:40 | 50.03539 | 8.52857 | 336 ft | 13 kts | 69° |
| 2026-05-04 19:40 | 50.03579 | 8.53019 | 335 ft | 18 kts | 68° |
| 2026-05-04 19:40 | 50.03590 | 8.53061 | 338 ft | 2 kts | 68° |
| 2026-05-04 19:40 | 50.03593 | 8.53071 | 336 ft | 0 kts | 68° |
| 2026-05-04 19:42 | 50.03593 | 8.53072 | 336 ft | 1 kts | 68° |
| 2026-05-04 19:42 | 50.03567 | 8.53213 | 337 ft | 20 kts | 81° |
| 2026-05-04 19:43 | 50.03623 | 8.53456 | 340 ft | 27 kts | 64° |
| 2026-05-04 19:43 | 50.03694 | 8.53737 | 350 ft | 28 kts | 79° |
| 2026-05-04 19:43 | 50.03702 | 8.53802 | 342 ft | 3 kts | 77° |
| 2026-05-04 19:43 | 50.03708 | 8.53840 | 353 ft | 0 kts | 73° |
| 2026-05-04 19:44 | 50.03716 | 8.53876 | 347 ft | 8 kts | 69° |
| 2026-05-04 19:44 | 50.03745 | 8.53997 | 346 ft | 16 kts | 69° |
| 2026-05-04 19:44 | 50.03790 | 8.54180 | 348 ft | 20 kts | 69° |
| 2026-05-04 19:44 | 50.03754 | 8.54350 | 346 ft | 21 kts | 161° |
| 2026-05-04 19:45 | 50.03707 | 8.54525 | 343 ft | 19 kts | 65° |
| 2026-05-04 19:45 | 50.03757 | 8.54720 | 353 ft | 20 kts | 68° |
| 2026-05-04 19:45 | 50.03805 | 8.54927 | 352 ft | 21 kts | 69° |
| 2026-05-04 19:45 | 50.03856 | 8.55146 | 357 ft | 21 kts | 68° |
| 2026-05-04 19:46 | 50.03912 | 8.55367 | 350 ft | 22 kts | 68° |
| 2026-05-04 19:46 | 50.03968 | 8.55605 | 358 ft | 25 kts | 71° |
| 2026-05-04 19:46 | 50.03985 | 8.55683 | 354 ft | 0 kts | 70° |
| 2026-05-04 19:48 | 50.03988 | 8.55692 | 352 ft | 5 kts | 70° |
| 2026-05-04 19:48 | 50.04008 | 8.55783 | 355 ft | 11 kts | 71° |
| 2026-05-04 19:48 | 50.04040 | 8.55916 | 354 ft | 15 kts | 69° |
| 2026-05-04 19:49 | 50.04080 | 8.56073 | 355 ft | 17 kts | 68° |
| 2026-05-04 19:49 | 50.04121 | 8.56255 | 357 ft | 19 kts | 71° |
| 2026-05-04 19:49 | 50.04170 | 8.56452 | 359 ft | 17 kts | 70° |
| 2026-05-04 19:49 | 50.04181 | 8.56503 | 357 ft | 3 kts | 70° |
| 2026-05-04 19:50 | 50.04187 | 8.56526 | 359 ft | 8 kts | 70° |
| 2026-05-04 19:50 | 50.04193 | 8.56553 | 359 ft | 0 kts | 70° |
| 2026-05-04 19:50 | 50.04203 | 8.56594 | 360 ft | 10 kts | 70° |
| 2026-05-04 19:51 | 50.04233 | 8.56720 | 359 ft | 14 kts | 71° |
| 2026-05-04 19:51 | 50.04296 | 8.56809 | 365 ft | 13 kts | 14° |
| 2026-05-04 19:51 | 50.04394 | 8.56839 | 365 ft | 15 kts | 10° |
| 2026-05-04 19:51 | 50.04509 | 8.56875 | 359 ft | 18 kts | 14° |
| 2026-05-04 19:52 | 50.04612 | 8.56912 | 356 ft | 0 kts | 10° |
| 2026-05-04 19:52 | 50.04635 | 8.56922 | 356 ft | 7 kts | 18° |
| 2026-05-04 19:52 | 50.04691 | 8.56961 | 358 ft | 10 kts | 24° |
| 2026-05-04 19:52 | 50.04753 | 8.57001 | 360 ft | 9 kts | 11° |
| 2026-05-04 19:53 | 50.04791 | 8.56955 | 358 ft | 0 kts | 294° |
| 2026-05-04 19:53 | 50.04798 | 8.56930 | 358 ft | 5 kts | 294° |
| 2026-05-04 19:53 | 50.04802 | 8.56917 | 361 ft | 0 kts | 294° |
| 2026-05-04 19:56 | 50.04802 | 8.56916 | 361 ft | 0 kts | 294° |